createdAt,value
2018-10-17T00:01:33.952Z,12.97
2018-10-17T00:04:02.823Z,14.15
2018-10-17T00:06:31.636Z,13.03
2018-10-17T00:09:00.484Z,13.82
2018-10-17T00:11:29.308Z,13.73
2018-10-17T00:13:58.159Z,14.63
2018-10-17T00:16:26.992Z,14.23
2018-10-17T00:18:56.609Z,14.43
2018-10-17T00:21:25.402Z,15.27
2018-10-17T00:23:54.239Z,13.40
2018-10-17T00:26:23.086Z,13.57
2018-10-17T00:28:52.664Z,13.90
2018-10-17T00:31:21.505Z,14.23
2018-10-17T00:33:50.335Z,15.75
2018-10-17T00:36:19.184Z,13.97
2018-10-17T00:38:48.016Z,14.57
2018-10-17T00:41:16.939Z,13.60
2018-10-17T00:43:45.713Z,15.13
2018-10-17T00:46:15.307Z,13.47
2018-10-17T00:48:44.155Z,13.50
2018-10-17T00:51:13.000Z,14.30
2018-10-17T00:53:41.851Z,13.27
2018-10-17T00:56:10.688Z,13.33
2018-10-17T00:58:39.541Z,12.87
2018-10-17T01:01:08.372Z,14.03
2018-10-17T01:03:37.938Z,14.83
2018-10-17T01:06:06.781Z,13.40
2018-10-17T01:08:35.617Z,14.27
2018-10-17T01:11:04.507Z,14.70
2018-10-17T01:13:33.304Z,14.27
2018-10-17T01:16:02.145Z,14.47
2018-10-17T01:18:30.972Z,15.80
2018-10-17T01:20:59.813Z,15.83
2018-10-17T01:23:28.648Z,18.05
2018-10-17T01:25:58.238Z,15.77
2018-10-17T01:28:27.078Z,15.13
2018-10-17T01:30:56.657Z,14.57
2018-10-17T01:33:25.483Z,13.90
2018-10-17T01:35:55.071Z,14.20
2018-10-17T01:38:24.653Z,13.43
2018-10-17T01:40:53.525Z,14.98
2018-10-17T01:43:22.343Z,13.37
2018-10-17T01:45:51.162Z,13.27
2018-10-17T01:48:20.000Z,13.40
2018-10-17T01:50:48.876Z,13.97
2018-10-17T01:53:17.715Z,12.70
2018-10-17T01:55:47.291Z,13.63
2018-10-17T01:58:16.135Z,14.27
2018-10-17T02:00:44.987Z,13.90
2018-10-17T02:03:13.817Z,13.80
2018-10-17T02:05:42.664Z,12.77
2018-10-17T02:08:12.252Z,12.60
2018-10-17T02:10:41.099Z,13.87
2018-10-17T02:13:09.933Z,12.63
2018-10-17T02:15:38.755Z,12.60
2018-10-17T02:18:07.602Z,12.43
2018-10-17T02:20:36.425Z,13.20
2018-10-17T02:23:06.041Z,12.80
2018-10-17T02:25:34.853Z,12.43
2018-10-17T02:28:03.695Z,12.87
2018-10-17T02:30:32.545Z,12.30
2018-10-17T02:33:01.380Z,12.70
2018-10-17T02:35:30.962Z,12.43
2018-10-17T02:37:59.811Z,14.40
2018-10-17T02:40:28.633Z,12.33
2018-10-17T02:42:57.515Z,13.57
2018-10-17T02:45:27.045Z,14.10
2018-10-17T02:47:55.889Z,14.23
2018-10-17T02:50:24.731Z,15.07
2018-10-17T02:52:54.346Z,15.63
2018-10-17T02:55:23.147Z,15.40
2018-10-17T02:57:51.982Z,15.33
2018-10-17T03:00:20.838Z,14.10
2018-10-17T03:02:49.663Z,14.73
2018-10-17T03:05:18.568Z,15.10
2018-10-17T03:07:47.339Z,15.83
2018-10-17T03:10:16.165Z,17.15
2018-10-17T03:12:45.016Z,15.00
2018-10-17T03:15:13.854Z,15.98
2018-10-17T03:17:43.427Z,14.63
2018-10-17T03:20:12.264Z,14.30
2018-10-17T03:22:41.104Z,14.33
2018-10-17T03:25:09.995Z,13.27
2018-10-17T03:27:38.790Z,15.00
2018-10-17T03:30:07.633Z,14.10
2018-10-17T03:32:36.481Z,13.90
2018-10-17T03:35:06.153Z,14.37
2018-10-17T03:37:34.905Z,15.50
2018-10-17T03:40:03.747Z,15.63
2018-10-17T03:42:32.582Z,15.00
2018-10-17T03:45:01.424Z,14.83
2018-10-17T03:47:30.265Z,14.27
2018-10-17T03:49:59.160Z,15.23
2018-10-17T03:52:27.961Z,14.87
2018-10-17T03:54:56.849Z,14.57
2018-10-17T03:57:25.675Z,15.33
2018-10-17T03:59:54.476Z,16.83
2018-10-17T04:02:24.073Z,15.70
2018-10-17T04:04:52.906Z,16.52
2018-10-17T04:07:21.753Z,16.90
2018-10-17T04:09:51.316Z,15.40
2018-10-17T04:12:20.157Z,16.37
2018-10-17T04:14:50.408Z,15.07
2018-10-17T04:17:19.145Z,15.82
2018-10-17T04:19:48.111Z,14.20
2018-10-17T04:22:16.811Z,14.33
2018-10-17T04:24:45.648Z,14.80
2018-10-17T04:27:14.499Z,13.90
2018-10-17T04:29:43.337Z,15.83
2018-10-17T04:32:12.176Z,15.33
2018-10-17T04:34:41.010Z,15.00
2018-10-17T04:37:09.900Z,13.97
2018-10-17T04:39:38.705Z,14.10
2018-10-17T04:42:07.534Z,13.93
2018-10-17T04:44:36.377Z,13.50
2018-10-17T04:47:05.330Z,13.40
2018-10-17T04:49:34.141Z,14.23
2018-10-17T04:52:02.986Z,15.23
2018-10-17T04:54:31.825Z,14.50
2018-10-17T04:57:00.661Z,15.13
2018-10-17T04:59:29.497Z,14.67
2018-10-17T05:01:58.333Z,15.93
2018-10-17T05:04:27.186Z,15.90
2018-10-17T05:06:56.844Z,16.33
2018-10-17T05:09:26.337Z,15.63
2018-10-17T05:11:55.182Z,15.87
2018-10-17T05:14:24.029Z,16.07
2018-10-17T05:16:52.874Z,15.47
2018-10-17T05:19:21.713Z,16.20
2018-10-17T05:21:50.557Z,16.47
2018-10-17T05:24:19.384Z,16.83
2018-10-17T05:26:48.227Z,17.13
2018-10-17T05:29:17.121Z,16.70
2018-10-17T05:31:45.901Z,16.50
2018-10-17T05:34:14.745Z,16.60
2018-10-17T05:36:43.602Z,16.73
2018-10-17T05:39:12.446Z,17.98
2018-10-17T05:41:41.306Z,16.00
2018-10-17T05:44:10.137Z,16.07
2018-10-17T05:46:38.985Z,16.53
2018-10-17T05:49:07.840Z,15.80
2018-10-17T05:51:36.662Z,16.53
2018-10-17T05:54:05.496Z,16.63
2018-10-17T05:56:34.341Z,17.73
2018-10-17T05:59:03.272Z,16.87
2018-10-17T06:01:32.025Z,15.97
2018-10-17T06:04:00.852Z,16.00
2018-10-17T06:06:29.686Z,18.15
2018-10-17T06:08:58.520Z,16.17
2018-10-17T06:11:28.097Z,17.10
2018-10-17T06:13:56.940Z,16.47
2018-10-17T06:16:25.781Z,16.50
2018-10-17T06:18:55.412Z,15.93
2018-10-17T06:21:24.183Z,16.70
2018-10-17T06:23:53.021Z,16.87
2018-10-17T06:26:21.845Z,16.90
2018-10-17T06:28:50.702Z,16.40
2018-10-17T06:31:19.582Z,17.27
2018-10-17T06:33:48.426Z,18.60
2018-10-17T06:36:17.232Z,18.55
2018-10-17T06:38:46.814Z,17.43
2018-10-17T06:41:15.730Z,17.30
2018-10-17T06:43:44.599Z,16.70
2018-10-17T06:46:14.090Z,16.83
2018-10-17T06:48:42.925Z,18.00
2018-10-17T06:51:11.839Z,15.43
2018-10-17T06:53:40.619Z,16.47
2018-10-17T06:56:09.452Z,18.40
2018-10-17T06:58:38.307Z,17.47
2018-10-17T07:01:07.183Z,19.23
2018-10-17T07:03:36.001Z,17.10
2018-10-17T07:06:04.845Z,17.77
2018-10-17T07:08:33.769Z,19.87
2018-10-17T07:11:02.591Z,18.57
2018-10-17T07:13:31.801Z,18.87
2018-10-17T07:16:01.447Z,17.83
2018-10-17T07:18:30.229Z,17.77
2018-10-17T07:20:59.079Z,18.57
2018-10-17T07:23:27.892Z,17.47
2018-10-17T07:25:56.747Z,18.63
2018-10-17T07:28:25.604Z,19.77
2018-10-17T07:30:54.475Z,22.08
2018-10-17T07:33:23.323Z,19.97
2018-10-17T07:35:52.268Z,18.93
2018-10-17T07:38:21.037Z,21.23
2018-10-17T07:40:49.885Z,17.67
2018-10-17T07:43:18.752Z,17.87
2018-10-17T07:45:47.673Z,17.70
2018-10-17T07:48:16.500Z,17.47
2018-10-17T07:50:45.316Z,18.07
2018-10-17T07:53:14.149Z,17.97
2018-10-17T07:55:42.978Z,17.73
2018-10-17T07:58:11.822Z,18.70
2018-10-17T08:00:41.397Z,21.37
2018-10-17T08:03:10.279Z,21.80
2018-10-17T08:05:39.073Z,19.67
2018-10-17T08:08:07.911Z,19.73
2018-10-17T08:10:36.784Z,19.77
2018-10-17T08:13:05.626Z,21.63
2018-10-17T08:15:34.454Z,23.93
2018-10-17T08:18:03.304Z,22.50
2018-10-17T08:20:32.136Z,22.13
2018-10-17T08:23:00.982Z,23.17
2018-10-17T08:25:29.833Z,25.48
2018-10-17T08:27:59.431Z,22.83
2018-10-17T08:30:29.018Z,23.27
2018-10-17T08:32:57.856Z,23.90
2018-10-17T08:35:26.801Z,24.03
2018-10-17T08:37:55.713Z,26.80
2018-10-17T08:40:24.385Z,26.87
2018-10-17T08:42:53.806Z,24.77
2018-10-17T08:45:22.710Z,26.00
2018-10-17T08:47:51.553Z,27.20
2018-10-17T08:50:20.384Z,26.87
2018-10-17T08:52:49.217Z,29.57
2018-10-17T08:55:18.119Z,28.37
2018-10-17T08:57:46.962Z,27.97
2018-10-17T09:00:15.755Z,26.73
2018-10-17T09:02:44.614Z,25.53
2018-10-17T09:05:14.207Z,26.80
2018-10-17T09:07:43.098Z,25.10
2018-10-17T09:10:11.909Z,28.95
2018-10-17T09:12:40.751Z,26.57
2018-10-17T09:17:40.451Z,26.80
2018-10-17T09:20:09.505Z,29.63
2018-10-17T09:22:38.208Z,27.27
2018-10-17T09:25:07.034Z,27.23
2018-10-17T09:27:35.814Z,27.87
2018-10-17T09:30:04.747Z,25.13
2018-10-17T09:32:34.243Z,26.20
2018-10-17T09:35:03.182Z,25.17
2018-10-17T09:37:31.943Z,29.35
2018-10-17T09:40:00.796Z,25.77
2018-10-17T09:42:29.636Z,25.33
2018-10-17T09:44:58.490Z,25.00
2018-10-17T09:47:27.318Z,24.67
2018-10-17T09:49:56.157Z,22.37
2018-10-17T09:52:25.000Z,25.37
2018-10-17T09:54:53.837Z,23.70
2018-10-17T09:57:22.674Z,25.27
2018-10-17T09:59:51.536Z,23.07
2018-10-17T10:02:20.409Z,23.93
2018-10-17T10:04:49.208Z,23.60
2018-10-17T10:07:18.800Z,25.50
2018-10-17T10:09:47.659Z,26.25
2018-10-17T10:12:16.556Z,23.13
2018-10-17T10:14:45.335Z,22.80
2018-10-17T10:17:14.253Z,22.10
2018-10-17T10:19:43.016Z,21.60
2018-10-17T10:22:11.931Z,21.87
2018-10-17T10:24:41.517Z,23.63
2018-10-17T10:27:10.287Z,24.27
2018-10-17T10:29:39.188Z,22.17
2018-10-17T10:32:07.972Z,21.30
2018-10-17T10:34:36.820Z,22.33
2018-10-17T10:37:05.678Z,20.93
2018-10-17T10:39:34.515Z,23.15
2018-10-17T10:42:03.394Z,20.57
2018-10-17T10:44:32.185Z,22.43
2018-10-17T10:47:01.027Z,22.50
2018-10-17T10:49:29.870Z,21.47
2018-10-17T10:51:58.706Z,21.27
2018-10-17T10:54:27.541Z,20.43
2018-10-17T10:56:57.159Z,20.27
2018-10-17T10:59:26.120Z,19.63
2018-10-17T11:01:54.843Z,20.07
2018-10-17T11:04:24.401Z,19.37
2018-10-17T11:06:53.247Z,21.27
2018-10-17T11:09:22.077Z,18.57
2018-10-17T11:11:50.913Z,21.60
2018-10-17T11:14:19.993Z,19.20
2018-10-17T11:16:48.609Z,20.15
2018-10-17T11:19:17.451Z,17.27
2018-10-17T11:21:47.059Z,19.50
2018-10-17T11:24:16.634Z,19.90
2018-10-17T11:26:45.467Z,13.30
2018-10-17T11:29:15.076Z,18.77
2018-10-17T11:31:43.958Z,17.73
2018-10-17T11:34:12.757Z,18.62
2018-10-17T11:36:41.647Z,16.43
2018-10-17T11:39:10.458Z,18.87
2018-10-17T11:41:39.314Z,16.13
2018-10-17T11:44:08.132Z,17.33
2018-10-17T11:46:37.001Z,19.03
2018-10-17T11:49:05.858Z,18.40
2018-10-17T11:51:34.652Z,17.83
2018-10-17T11:54:03.493Z,18.33
2018-10-17T11:56:32.323Z,19.12
2018-10-17T11:59:01.192Z,17.37
2018-10-17T12:01:30.003Z,17.90
2018-10-17T12:03:59.681Z,17.00
2018-10-17T12:06:28.446Z,16.43
2018-10-17T12:08:57.910Z,16.23
2018-10-17T12:11:26.766Z,18.62
2018-10-17T12:13:55.576Z,16.80
2018-10-17T12:16:24.451Z,14.57
2018-10-17T12:18:53.336Z,13.47
2018-10-17T12:21:22.226Z,13.62
2018-10-17T12:23:51.020Z,13.10
2018-10-17T12:26:19.821Z,13.83
2018-10-17T12:28:48.755Z,13.57
2018-10-17T12:31:17.512Z,12.50
2018-10-17T12:33:46.348Z,14.37
2018-10-17T12:36:15.194Z,15.23
2018-10-17T12:38:44.784Z,14.70
2018-10-17T12:41:13.665Z,17.02
2018-10-17T12:43:42.475Z,16.70
2018-10-17T12:46:11.313Z,16.85
2018-10-17T12:48:40.896Z,15.95
2018-10-17T12:51:10.192Z,15.45
2018-10-17T12:53:39.126Z,14.23
2018-10-17T12:56:07.912Z,13.68
2018-10-17T12:58:36.744Z,13.10
2018-10-17T13:01:06.387Z,13.98
2018-10-17T13:03:35.181Z,15.57
2018-10-17T13:06:04.043Z,13.98
2018-10-17T13:08:32.895Z,14.95
2018-10-17T13:11:01.737Z,13.38
2018-10-17T13:13:31.366Z,14.45
2018-10-17T13:16:00.313Z,15.00
2018-10-17T13:18:29.154Z,17.17
2018-10-17T13:20:58.006Z,16.45
2018-10-17T13:23:26.863Z,15.70
2018-10-17T13:25:55.701Z,13.85
2018-10-17T13:28:24.549Z,16.33
2018-10-17T13:30:54.180Z,13.60
2018-10-17T13:33:22.988Z,12.85
2018-10-17T13:35:51.838Z,17.00
2018-10-17T13:38:20.673Z,18.70
2018-10-17T13:40:50.257Z,20.00
2018-10-17T13:43:19.240Z,18.20
2018-10-17T13:45:47.930Z,19.33
2018-10-17T13:48:16.778Z,18.65
2018-10-17T13:50:45.628Z,20.30
2018-10-17T13:53:14.510Z,20.20
2018-10-17T13:55:43.321Z,20.60
2018-10-17T13:58:12.227Z,21.37
2018-10-17T14:00:41.029Z,22.73
2018-10-17T14:03:09.912Z,24.17
2018-10-17T14:05:38.745Z,25.37
2018-10-17T14:08:07.581Z,24.75
2018-10-17T14:10:36.425Z,24.15
2018-10-17T14:13:05.274Z,23.73
2018-10-17T14:15:34.124Z,20.20
2018-10-17T14:18:03.029Z,22.42
2018-10-17T14:20:31.880Z,24.52
2018-10-17T14:23:00.691Z,24.37
2018-10-17T14:25:29.545Z,24.08
2018-10-17T14:27:59.121Z,21.23
2018-10-17T14:30:28.077Z,22.40
2018-10-17T14:32:57.715Z,19.42
2018-10-17T14:35:26.502Z,19.10
2018-10-17T14:37:55.399Z,17.67
2018-10-17T14:40:24.199Z,17.33
2018-10-17T14:42:53.058Z,16.62
2018-10-17T14:45:21.910Z,16.02
2018-10-17T14:47:50.754Z,14.05
2018-10-17T14:50:20.216Z,16.10
2018-10-17T14:52:49.054Z,16.20
2018-10-17T14:55:17.901Z,17.17
2018-10-17T14:57:46.756Z,18.27
2018-10-17T15:00:15.590Z,16.70
2018-10-17T15:02:44.442Z,16.35
2018-10-17T15:05:13.386Z,15.60
2018-10-17T15:07:42.184Z,15.30
2018-10-17T15:10:11.029Z,15.65
2018-10-17T15:12:39.841Z,14.87
2018-10-17T15:15:08.748Z,15.23
2018-10-17T15:17:37.616Z,13.27
2018-10-17T15:20:06.446Z,14.43
2018-10-17T15:22:35.305Z,13.02
2018-10-17T15:25:04.163Z,13.60
2018-10-17T15:27:33.608Z,12.30
2018-10-17T15:30:02.537Z,11.88
2018-10-17T15:32:31.347Z,12.27
2018-10-17T15:35:00.265Z,11.55
2018-10-17T15:37:29.356Z,10.77
2018-10-17T15:39:58.142Z,11.15
2018-10-17T15:42:26.989Z,10.23
2018-10-17T15:44:55.872Z,10.60
2018-10-17T15:47:24.682Z,9.85
2018-10-17T15:49:53.781Z,8.82
2018-10-17T15:52:22.623Z,9.88
2018-10-17T15:54:51.572Z,9.32
2018-10-17T15:57:20.322Z,8.77
2018-10-17T15:59:49.168Z,8.95
2018-10-17T16:02:18.056Z,9.90
2018-10-17T16:04:46.873Z,8.73
2018-10-17T16:07:15.730Z,9.27
2018-10-17T16:09:44.565Z,8.73
2018-10-17T16:12:13.429Z,8.00
2018-10-17T16:14:42.229Z,9.38
2018-10-17T16:17:11.148Z,8.70
2018-10-17T16:19:39.904Z,8.52
2018-10-17T16:22:08.751Z,7.97
2018-10-17T16:24:37.590Z,7.57
2018-10-17T16:27:06.437Z,8.85
2018-10-17T16:29:35.269Z,8.07
2018-10-17T16:32:04.162Z,8.32
2018-10-17T16:34:32.967Z,8.00
2018-10-17T16:37:01.823Z,9.25
2018-10-17T16:39:30.663Z,8.80
2018-10-17T16:41:59.517Z,9.68
2018-10-17T16:44:28.327Z,6.97
2018-10-17T16:46:57.161Z,8.52
2018-10-17T16:49:26.034Z,10.15
2018-10-17T16:51:54.860Z,8.70
2018-10-17T16:54:23.703Z,9.00
2018-10-17T16:56:52.561Z,8.60
2018-10-17T16:59:21.400Z,9.10
2018-10-17T17:01:50.233Z,9.93
2018-10-17T17:04:19.119Z,9.52
2018-10-17T17:06:47.932Z,10.57
2018-10-17T17:09:16.858Z,8.45
2018-10-17T17:11:45.602Z,9.05
2018-10-17T17:14:14.445Z,9.32
2018-10-17T17:16:43.287Z,8.45
2018-10-17T17:19:12.122Z,9.50
2018-10-17T17:21:41.137Z,9.97
2018-10-17T17:24:10.029Z,9.27
2018-10-17T17:26:38.822Z,9.90
2018-10-17T17:29:08.418Z,9.48
2018-10-17T17:31:37.266Z,10.20
2018-10-17T17:34:06.100Z,8.88
2018-10-17T17:36:34.960Z,10.13
2018-10-17T17:39:03.804Z,10.70
2018-10-17T17:41:32.692Z,11.70
2018-10-17T17:44:02.278Z,10.52
2018-10-17T17:46:31.130Z,9.75
2018-10-17T17:48:59.991Z,10.60
2018-10-17T17:51:28.845Z,10.30
2018-10-17T17:53:57.703Z,10.73
2018-10-17T17:56:26.555Z,10.40
2018-10-17T17:58:55.401Z,10.10
2018-10-17T18:01:24.256Z,10.67
2018-10-17T18:03:53.104Z,11.30
2018-10-17T18:06:21.990Z,10.40
2018-10-17T18:08:50.778Z,11.60
2018-10-17T18:11:20.370Z,11.50
2018-10-17T18:13:49.829Z,11.73
2018-10-17T18:16:18.677Z,11.23
2018-10-17T18:18:47.546Z,10.47
2018-10-17T18:21:16.393Z,12.20
2018-10-17T18:23:45.243Z,10.43
2018-10-17T18:26:14.838Z,11.35
2018-10-17T18:28:43.693Z,11.40
2018-10-17T18:31:12.551Z,12.90
2018-10-17T18:33:42.115Z,12.03
2018-10-17T18:36:10.956Z,12.10
2018-10-17T18:38:39.796Z,11.87
2018-10-17T18:41:08.645Z,11.73
2018-10-17T18:43:37.504Z,11.67
2018-10-17T18:46:07.103Z,12.13
2018-10-17T18:48:35.936Z,11.63
2018-10-17T18:51:05.004Z,12.13
2018-10-17T18:53:33.827Z,12.47
2018-10-17T18:56:02.723Z,14.20
2018-10-17T18:58:31.553Z,12.93
2018-10-17T19:01:00.368Z,12.60
2018-10-17T19:03:29.226Z,12.20
2018-10-17T19:05:58.844Z,13.17
2018-10-17T19:08:27.676Z,13.38
2018-10-17T19:10:56.530Z,11.97
2018-10-17T19:13:25.372Z,12.43
2018-10-17T19:15:54.283Z,12.50
2018-10-17T19:18:23.065Z,12.07
2018-10-17T19:20:51.938Z,12.10
2018-10-17T19:23:20.780Z,12.50
2018-10-17T19:25:49.646Z,11.97
2018-10-17T19:28:19.083Z,12.40
2018-10-17T19:30:47.934Z,12.40
2018-10-17T19:33:16.823Z,11.57
2018-10-17T19:35:45.674Z,12.65
2018-10-17T19:38:14.480Z,12.20
2018-10-17T19:40:43.349Z,13.03
2018-10-17T19:43:12.204Z,11.80
2018-10-17T19:45:41.055Z,12.20
2018-10-17T19:48:09.897Z,12.93
2018-10-17T19:50:38.743Z,13.10
2018-10-17T19:53:08.338Z,12.63
2018-10-17T19:55:37.171Z,12.10
2018-10-17T19:58:06.022Z,13.63
2018-10-17T20:00:34.865Z,13.43
2018-10-17T20:03:03.724Z,13.10
2018-10-17T20:05:32.563Z,15.27
2018-10-17T20:08:01.458Z,14.45
2018-10-17T20:10:30.293Z,13.53
2018-10-17T20:13:00.047Z,13.53
2018-10-17T20:15:29.054Z,13.37
2018-10-17T20:17:58.227Z,13.97
2018-10-17T20:20:26.801Z,13.60
2018-10-17T20:22:55.685Z,13.60
2018-10-17T20:25:24.542Z,13.57
2018-10-17T20:27:54.143Z,13.67
2018-10-17T20:30:23.015Z,14.20
2018-10-17T20:32:51.876Z,13.30
2018-10-17T20:35:20.720Z,13.23
2018-10-17T20:37:50.453Z,13.27
2018-10-17T20:40:19.307Z,13.40
2018-10-17T20:42:48.162Z,14.73
2018-10-17T20:45:17.009Z,14.23
2018-10-17T20:47:46.605Z,13.30
2018-10-17T20:50:15.492Z,13.07
2018-10-17T20:52:44.289Z,13.60
2018-10-17T20:55:13.894Z,14.63
2018-10-17T20:57:42.749Z,13.90
2018-10-17T21:00:11.607Z,15.13
2018-10-17T21:02:40.451Z,14.00
2018-10-17T21:05:10.071Z,13.63
2018-10-17T21:07:38.911Z,12.93
2018-10-17T21:10:07.749Z,13.20
2018-10-17T21:12:37.334Z,13.37
2018-10-17T21:15:06.769Z,12.93
2018-10-17T21:17:35.607Z,13.67
2018-10-17T21:20:04.456Z,13.47
2018-10-17T21:22:33.297Z,14.03
2018-10-17T21:25:02.139Z,14.17
2018-10-17T21:27:30.982Z,14.70
2018-10-17T21:29:59.819Z,14.80
2018-10-17T21:32:28.666Z,14.50
2018-10-17T21:34:58.246Z,14.63
2018-10-17T21:37:27.102Z,15.15
2018-10-17T21:39:55.947Z,13.83
2018-10-17T21:42:24.784Z,13.47
2018-10-17T21:44:53.623Z,13.53
2018-10-17T21:47:22.591Z,13.53
2018-10-17T21:49:51.346Z,15.02
2018-10-17T21:52:20.170Z,13.57
2018-10-17T21:54:49.010Z,13.57
2018-10-17T21:57:17.861Z,14.10
2018-10-17T21:59:46.712Z,14.17
2018-10-17T22:02:15.572Z,14.23
2018-10-17T22:04:45.163Z,14.37
2018-10-17T22:07:14.747Z,15.23
2018-10-17T22:09:43.650Z,15.95
2018-10-17T22:12:12.452Z,16.47
2018-10-17T22:14:41.300Z,18.87
2018-10-17T22:17:10.129Z,17.48
2018-10-17T22:19:39.016Z,15.40
2018-10-17T22:22:07.817Z,15.88
2018-10-17T22:24:37.394Z,16.17
2018-10-17T22:27:06.238Z,16.73
2018-10-17T22:29:35.079Z,16.33
2018-10-17T22:32:03.980Z,15.70
2018-10-17T22:34:32.800Z,17.50
2018-10-17T22:37:01.642Z,15.30
2018-10-17T22:39:30.479Z,15.47
2018-10-17T22:41:59.322Z,15.77
2018-10-17T22:44:28.195Z,17.67
2018-10-17T22:46:57.025Z,14.93
2018-10-17T22:49:25.880Z,16.63
2018-10-17T22:51:54.733Z,15.90
2018-10-17T22:54:23.566Z,15.57
2018-10-17T22:56:52.403Z,16.37
2018-10-17T22:59:21.256Z,15.47
2018-10-17T23:01:50.109Z,16.03
2018-10-17T23:04:18.946Z,17.62
2018-10-17T23:06:48.530Z,15.57
2018-10-17T23:09:17.362Z,16.95
2018-10-17T23:11:46.207Z,15.90
2018-10-17T23:14:15.132Z,15.30
2018-10-17T23:16:43.908Z,15.50
2018-10-17T23:19:12.752Z,15.70
2018-10-17T23:21:41.594Z,17.20
2018-10-17T23:24:11.183Z,15.83
2018-10-17T23:26:40.021Z,16.83
2018-10-17T23:29:08.853Z,16.50
2018-10-17T23:31:37.690Z,16.00
2018-10-17T23:34:06.538Z,15.57
2018-10-17T23:36:35.387Z,15.77
2018-10-17T23:39:04.230Z,16.75
2018-10-17T23:41:33.807Z,14.80
2018-10-17T23:44:02.690Z,14.73
2018-10-17T23:46:31.477Z,16.10
2018-10-17T23:49:00.310Z,15.47
2018-10-17T23:51:29.904Z,16.03
2018-10-17T23:53:59.531Z,15.57
2018-10-17T23:56:28.309Z,15.67
2018-10-17T23:58:57.152Z,15.33
